Station Historical Data
 
Daily Summary for February 24, 2018 Units:  Both    English   Metric
« Previous Day
Next Day »
Daily Weekly Monthly Yearly Custom
  Current: High: Low: Average:
Temperature: 37.0 °F /  2.8 °C TemperatureF °F /  -17.8 °C 36.9 °F /  2.7 °C 38.4 °F /  3.6 °C
Dew Point: 30.8 °F /  -0.7 °C DewpointF °F /  -17.8 °C 30.1 °F /  -1.1 °C 33.1 °F /  0.6 °C
Humidity: 78% Humidity% 71% 81%
Wind Speed: 5.0mph /  8km/h WindSpeedMPHmph /  0km/h - 3.4mph /  5.5km/h
Wind Gust: 11.0mph /  17.7km/h WindSpeedGustMPHmph /  0km/h - -
WindENE - - South
Pressure: 30.13 in /  1020.2 hPa PressureIn in /  0 hPa 30.13 in /  1020.2 hPa -
Precipitation: 0.00 in /  0 mm      
Historical Graphs
 
 
Tabular Data for February 24, 2018
Time Temperature Dew Point Pressure Wind Wind Speed Wind Gust Humidity Rainfall Rate (Hourly)
TemperatureF °F /  -17.8 °C DewpointF °F /  -17.8 °C PressureInin /  0hPa Calm     Humidity% HourlyPrecipInin /  0mm
00:04 39.1 °F /  3.9 °C 37.0 °F /  2.8 °C 30.16in /  1021.2hPa SW 4.0mph /  6.4km/h 9.0mph /  14.5km/h 92% 0.00in /  0mm
00:09 39.0 °F /  3.9 °C 37.1 °F /  2.8 °C 30.17in /  1021.6hPa WSW 3.0mph /  4.8km/h 11.0mph /  17.7km/h 93% 0.00in /  0mm
00:14 38.9 °F /  3.8 °C 37.0 °F /  2.8 °C 30.17in /  1021.6hPa WSW 5.0mph /  8km/h 11.0mph /  17.7km/h 93% 0.00in /  0mm
00:19 38.9 °F /  3.8 °C 37.0 °F /  2.8 °C 30.17in /  1021.6hPa WSW 5.0mph /  8km/h 11.0mph /  17.7km/h 93% 0.00in /  0mm
00:24 38.8 °F /  3.8 °C 36.9 °F /  2.7 °C 30.18in /  1021.9hPa WSW 5.0mph /  8km/h 7.0mph /  11.3km/h 93% 0.00in /  0mm
00:29 38.8 °F /  3.8 °C 36.7 °F /  2.6 °C 30.18in /  1021.9hPa SW 3.0mph /  4.8km/h 12.0mph /  19.3km/h 92% 0.00in /  0mm
00:34 38.6 °F /  3.7 °C 36.5 °F /  2.5 °C 30.17in /  1021.6hPa WSW 9.0mph /  14.5km/h 11.0mph /  17.7km/h 92% 0.00in /  0mm
00:39 38.6 °F /  3.7 °C 36.8 °F /  2.7 °C 30.18in /  1021.9hPa WSW 5.0mph /  8km/h 11.0mph /  17.7km/h 93% 0.00in /  0mm
00:44 38.5 °F /  3.6 °C 36.7 °F /  2.6 °C 30.17in /  1021.6hPa WSW 4.0mph /  6.4km/h 11.0mph /  17.7km/h 93% 0.00in /  0mm
00:49 38.6 °F /  3.7 °C 36.8 °F /  2.7 °C 30.18in /  1021.9hPa WSW 4.0mph /  6.4km/h 9.0mph /  14.5km/h 93% 0.00in /  0mm
00:54 38.6 °F /  3.7 °C 36.8 °F /  2.7 °C 30.18in /  1021.9hPa SSW 5.0mph /  8km/h 7.0mph /  11.3km/h 93% 0.00in /  0mm
00:59 38.6 °F /  3.7 °C 36.8 °F /  2.7 °C 30.18in /  1021.9hPa WSW 4.0mph /  6.4km/h 7.0mph /  11.3km/h 93% 0.00in /  0mm
01:04 38.7 °F /  3.7 °C 36.9 °F /  2.7 °C 30.18in /  1021.9hPa West 1.0mph /  1.6km/h 6.0mph /  9.7km/h 93% 0.00in /  0mm
01:09 38.7 °F /  3.7 °C 36.9 °F /  2.7 °C 30.19in /  1022.2hPa WSW 2.0mph /  3.2km/h 6.0mph /  9.7km/h 93% 0.00in /  0mm
01:14 38.7 °F /  3.7 °C 36.9 °F /  2.7 °C 30.19in /  1022.2hPa WSW 3.0mph /  4.8km/h 6.0mph /  9.7km/h 93% 0.00in /  0mm
01:19 38.7 °F /  3.7 °C 36.9 °F /  2.7 °C 30.19in /  1022.2hPa WSW 3.0mph /  4.8km/h 6.0mph /  9.7km/h 93% 0.00in /  0mm
01:24 38.8 °F /  3.8 °C 36.9 °F /  2.7 °C 30.19in /  1022.2hPa WSW 2.0mph /  3.2km/h 6.0mph /  9.7km/h 93% 0.00in /  0mm
01:29 38.8 °F /  3.8 °C 36.9 °F /  2.7 °C 30.19in /  1022.2hPa WSW 2.0mph /  3.2km/h 6.0mph /  9.7km/h 93% 0.00in /  0mm
01:34 38.8 °F /  3.8 °C 36.9 °F /  2.7 °C 30.19in /  1022.2hPa WSW 2.0mph /  3.2km/h 5.0mph /  8km/h 93% 0.00in /  0mm
01:39 38.9 °F /  3.8 °C 37.0 °F /  2.8 °C 30.19in /  1022.2hPa SW 3.0mph /  4.8km/h 5.0mph /  8km/h 93% 0.00in /  0mm
01:44 38.9 °F /  3.8 °C 37.0 °F /  2.8 °C 30.19in /  1022.2hPa SW 2.0mph /  3.2km/h 5.0mph /  8km/h 93% 0.00in /  0mm
01:49 38.9 °F /  3.8 °C 37.0 °F /  2.8 °C 30.19in /  1022.2hPa SW 2.0mph /  3.2km/h 4.0mph /  6.4km/h 93% 0.00in /  0mm
01:54 39.0 °F /  3.9 °C 37.1 °F /  2.8 °C 30.19in /  1022.2hPa SW 2.0mph /  3.2km/h 3.0mph /  4.8km/h 93% 0.00in /  0mm
01:59 39.0 °F /  3.9 °C 37.1 °F /  2.8 °C 30.19in /  1022.2hPa Calm   4.0mph /  6.4km/h 93% 0.00in /  0mm
02:04 39.0 °F /  3.9 °C 37.1 °F /  2.8 °C 30.19in /  1022.2hPa SW 1.0mph /  1.6km/h 4.0mph /  6.4km/h 93% 0.00in /  0mm
02:09 39.1 °F /  3.9 °C 37.2 °F /  2.9 °C 30.19in /  1022.2hPa NW 4.0mph /  6.4km/h 5.0mph /  8km/h 93% 0.00in /  0mm
02:14 39.3 °F /  4.1 °C 37.4 °F /  3 °C 30.19in /  1022.2hPa WSW 2.0mph /  3.2km/h 8.0mph /  12.9km/h 93% 0.00in /  0mm
02:19 39.6 °F /  4.2 °C 37.7 °F /  3.2 °C 30.19in /  1022.2hPa West 3.0mph /  4.8km/h 8.0mph /  12.9km/h 93% 0.00in /  0mm
02:24 39.9 °F /  4.4 °C 38.0 °F /  3.3 °C 30.19in /  1022.2hPa WSW 2.0mph /  3.2km/h 6.0mph /  9.7km/h 93% 0.00in /  0mm
02:29 40.1 °F /  4.5 °C 38.2 °F /  3.4 °C 30.19in /  1022.2hPa WSW 6.0mph /  9.7km/h 10.0mph /  16.1km/h 93% 0.00in /  0mm
02:34 40.2 °F /  4.6 °C 38.3 °F /  3.5 °C 30.20in /  1022.6hPa NW 5.0mph /  8km/h 9.0mph /  14.5km/h 93% 0.00in /  0mm
02:39 40.3 °F /  4.6 °C 38.4 °F /  3.6 °C 30.19in /  1022.2hPa West 4.0mph /  6.4km/h 8.0mph /  12.9km/h 93% 0.00in /  0mm
02:44 40.3 °F /  4.6 °C 38.4 °F /  3.6 °C 30.20in /  1022.6hPa WNW 4.0mph /  6.4km/h 9.0mph /  14.5km/h 93% 0.00in /  0mm
02:49 40.4 °F /  4.7 °C 38.5 °F /  3.6 °C 30.20in /  1022.6hPa WNW 4.0mph /  6.4km/h 9.0mph /  14.5km/h 93% 0.00in /  0mm
02:54 40.4 °F /  4.7 °C 38.5 °F /  3.6 °C 30.20in /  1022.6hPa WNW 4.0mph /  6.4km/h 9.0mph /  14.5km/h 93% 0.00in /  0mm
02:59 40.4 °F /  4.7 °C 38.5 °F /  3.6 °C 30.19in /  1022.2hPa WNW 5.0mph /  8km/h 8.0mph /  12.9km/h 93% 0.00in /  0mm
03:04 40.3 °F /  4.6 °C 38.4 °F /  3.6 °C 30.19in /  1022.2hPa NW 7.0mph /  11.3km/h 9.0mph /  14.5km/h 93% 0.00in /  0mm
03:09 40.2 °F /  4.6 °C 38.3 °F /  3.5 °C 30.20in /  1022.6hPa WNW 3.0mph /  4.8km/h 8.0mph /  12.9km/h 93% 0.00in /  0mm
03:14 40.0 °F /  4.4 °C 38.1 °F /  3.4 °C 30.21in /  1022.9hPa NW 4.0mph /  6.4km/h 9.0mph /  14.5km/h 93% 0.00in /  0mm
03:19 39.8 °F /  4.3 °C 37.9 °F /  3.3 °C 30.20in /  1022.6hPa WNW 4.0mph /  6.4km/h 9.0mph /  14.5km/h 93% 0.00in /  0mm
03:24 39.6 °F /  4.2 °C 37.7 °F /  3.2 °C 30.22in /  1023.2hPa WNW 4.0mph /  6.4km/h 9.0mph /  14.5km/h 93% 0.00in /  0mm
03:34 39.3 °F /  4.1 °C 37.4 °F /  3 °C 30.21in /  1022.9hPa NW 7.0mph /  11.3km/h 10.0mph /  16.1km/h 93% 0.00in /  0mm
03:39 39.1 °F /  3.9 °C 37.2 °F /  2.9 °C 30.21in /  1022.9hPa NW 5.0mph /  8km/h 14.0mph /  22.5km/h 93% 0.00in /  0mm
03:44 38.9 °F /  3.8 °C 37.0 °F /  2.8 °C 30.21in /  1022.9hPa NW 5.0mph /  8km/h 14.0mph /  22.5km/h 93% 0.00in /  0mm
03:49 38.9 °F /  3.8 °C 37.0 °F /  2.8 °C 30.22in /  1023.2hPa NW 6.0mph /  9.7km/h 10.0mph /  16.1km/h 93% 0.00in /  0mm
04:00 38.8 °F /  3.8 °C 36.9 °F /  2.7 °C 30.22in /  1023.2hPa WNW 4.0mph /  6.4km/h 10.0mph /  16.1km/h 93% 0.00in /  0mm
04:09 38.8 °F /  3.8 °C 36.9 °F /  2.7 °C 30.23in /  1023.6hPa WNW 4.0mph /  6.4km/h 8.0mph /  12.9km/h 93% 0.00in /  0mm
04:10 38.8 °F /  3.8 °C 36.9 °F /  2.7 °C 30.23in /  1023.6hPa WNW 5.0mph /  8km/h 8.0mph /  12.9km/h 93% 0.00in /  0mm
04:19 38.8 °F /  3.8 °C 36.9 °F /  2.7 °C 30.23in /  1023.6hPa WNW 3.0mph /  4.8km/h 7.0mph /  11.3km/h 93% 0.00in /  0mm
04:24 38.8 °F /  3.8 °C 36.9 °F /  2.7 °C 30.22in /  1023.2hPa WNW 3.0mph /  4.8km/h 7.0mph /  11.3km/h 93% 0.00in /  0mm
04:29 38.8 °F /  3.8 °C 36.9 °F /  2.7 °C 30.22in /  1023.2hPa NW 4.0mph /  6.4km/h 8.0mph /  12.9km/h 93% 0.00in /  0mm
04:34 38.8 °F /  3.8 °C 36.9 °F /  2.7 °C 30.22in /  1023.2hPa West 4.0mph /  6.4km/h 8.0mph /  12.9km/h 93% 0.00in /  0mm
04:39 38.8 °F /  3.8 °C 36.7 °F /  2.6 °C 30.22in /  1023.2hPa NNW 4.0mph /  6.4km/h 9.0mph /  14.5km/h 92% 0.00in /  0mm
04:44 38.8 °F /  3.8 °C 36.7 °F /  2.6 °C 30.22in /  1023.2hPa NW 4.0mph /  6.4km/h 9.0mph /  14.5km/h 92% 0.00in /  0mm
04:49 38.8 °F /  3.8 °C 36.7 °F /  2.6 °C 30.22in /  1023.2hPa NW 3.0mph /  4.8km/h 8.0mph /  12.9km/h 92% 0.00in /  0mm
04:54 38.7 °F /  3.7 °C 36.6 °F /  2.6 °C 30.22in /  1023.2hPa NW 1.0mph /  1.6km/h 5.0mph /  8km/h 92% 0.00in /  0mm
04:59 38.8 °F /  3.8 °C 36.7 °F /  2.6 °C 30.21in /  1022.9hPa NW 3.0mph /  4.8km/h 3.0mph /  4.8km/h 92% 0.00in /  0mm
05:04 38.8 °F /  3.8 °C 36.7 °F /  2.6 °C 30.20in /  1022.6hPa WNW 5.0mph /  8km/h 6.0mph /  9.7km/h 92% 0.00in /  0mm
05:09 38.7 °F /  3.7 °C 36.6 °F /  2.6 °C 30.20in /  1022.6hPa NW 3.0mph /  4.8km/h 6.0mph /  9.7km/h 92% 0.00in /  0mm
05:14 38.6 °F /  3.7 °C 36.5 °F /  2.5 °C 30.21in /  1022.9hPa NNW 4.0mph /  6.4km/h 9.0mph /  14.5km/h 92% 0.00in /  0mm
05:19 38.5 °F /  3.6 °C 36.4 °F /  2.4 °C 30.22in /  1023.2hPa NNW 4.0mph /  6.4km/h 9.0mph /  14.5km/h 92% 0.00in /  0mm
05:24 38.5 °F /  3.6 °C 36.4 °F /  2.4 °C 30.22in /  1023.2hPa NNW 3.0mph /  4.8km/h 8.0mph /  12.9km/h 92% 0.00in /  0mm
05:29 38.5 °F /  3.6 °C 36.4 °F /  2.4 °C 30.22in /  1023.2hPa NNW 1.0mph /  1.6km/h 6.0mph /  9.7km/h 92% 0.00in /  0mm
05:34 38.4 °F /  3.6 °C 36.0 °F /  2.2 °C 30.22in /  1023.2hPa WNW 10.0mph /  16.1km/h 11.0mph /  17.7km/h 91% 0.00in /  0mm
05:39 38.3 °F /  3.5 °C 35.9 °F /  2.2 °C 30.22in /  1023.2hPa North 4.0mph /  6.4km/h 12.0mph /  19.3km/h 91% 0.00in /  0mm
05:44 38.2 °F /  3.4 °C 35.8 °F /  2.1 °C 30.23in /  1023.6hPa NW 4.0mph /  6.4km/h 12.0mph /  19.3km/h 91% 0.00in /  0mm
05:49 38.2 °F /  3.4 °C 35.8 °F /  2.1 °C 30.23in /  1023.6hPa NW 3.0mph /  4.8km/h 9.0mph /  14.5km/h 91% 0.00in /  0mm
05:54 38.1 °F /  3.4 °C 35.4 °F /  1.9 °C 30.23in /  1023.6hPa NW 4.0mph /  6.4km/h 8.0mph /  12.9km/h 90% 0.00in /  0mm
05:59 38.1 °F /  3.4 °C 35.4 °F /  1.9 °C 30.23in /  1023.6hPa Calm   7.0mph /  11.3km/h 90% 0.00in /  0mm
06:04 38.2 °F /  3.4 °C 35.5 °F /  1.9 °C 30.23in /  1023.6hPa NW 2.0mph /  3.2km/h 7.0mph /  11.3km/h 90% 0.00in /  0mm
06:09 38.1 °F /  3.4 °C 35.4 °F /  1.9 °C 30.24in /  1023.9hPa Calm   6.0mph /  9.7km/h 90% 0.00in /  0mm
06:14 38.1 °F /  3.4 °C 35.1 °F /  1.7 °C 30.24in /  1023.9hPa WNW 2.0mph /  3.2km/h 6.0mph /  9.7km/h 89% 0.00in /  0mm
06:19 38.2 °F /  3.4 °C 35.2 °F /  1.8 °C 30.23in /  1023.6hPa WNW 1.0mph /  1.6km/h 4.0mph /  6.4km/h 89% 0.00in /  0mm
06:24 38.2 °F /  3.4 °C 35.2 °F /  1.8 °C 30.23in /  1023.6hPa West 3.0mph /  4.8km/h 5.0mph /  8km/h 89% 0.00in /  0mm
06:29 38.2 °F /  3.4 °C 35.2 °F /  1.8 °C 30.24in /  1023.9hPa NW 4.0mph /  6.4km/h 5.0mph /  8km/h 89% 0.00in /  0mm
06:34 38.1 °F /  3.4 °C 34.9 °F /  1.6 °C 30.24in /  1023.9hPa NNW 2.0mph /  3.2km/h 5.0mph /  8km/h 88% 0.00in /  0mm
06:39 38.1 °F /  3.4 °C 34.9 °F /  1.6 °C 30.24in /  1023.9hPa NW 4.0mph /  6.4km/h 8.0mph /  12.9km/h 88% 0.00in /  0mm
06:44 38.0 °F /  3.3 °C 34.5 °F /  1.4 °C 30.24in /  1023.9hPa NW 3.0mph /  4.8km/h 8.0mph /  12.9km/h 87% 0.00in /  0mm
06:49 38.0 °F /  3.3 °C 34.5 °F /  1.4 °C 30.24in /  1023.9hPa NW 3.0mph /  4.8km/h 8.0mph /  12.9km/h 87% 0.00in /  0mm
06:54 38.0 °F /  3.3 °C 34.5 °F /  1.4 °C 30.24in /  1023.9hPa NW 3.0mph /  4.8km/h 6.0mph /  9.7km/h 87% 0.00in /  0mm
06:59 38.0 °F /  3.3 °C 34.2 °F /  1.2 °C 30.24in /  1023.9hPa NW 2.0mph /  3.2km/h 5.0mph /  8km/h 86% 0.00in /  0mm
07:04 38.0 °F /  3.3 °C 34.2 °F /  1.2 °C 30.23in /  1023.6hPa NW 2.0mph /  3.2km/h 5.0mph /  8km/h 86% 0.00in /  0mm
07:09 38.0 °F /  3.3 °C 34.2 °F /  1.2 °C 30.23in /  1023.6hPa Calm   4.0mph /  6.4km/h 86% 0.00in /  0mm
07:14 38.0 °F /  3.3 °C 34.2 °F /  1.2 °C 30.23in /  1023.6hPa NW 2.0mph /  3.2km/h 4.0mph /  6.4km/h 86% 0.00in /  0mm
07:19 38.0 °F /  3.3 °C 33.9 °F /  1.1 °C 30.23in /  1023.6hPa NW 1.0mph /  1.6km/h 4.0mph /  6.4km/h 85% 0.00in /  0mm
07:24 38.0 °F /  3.3 °C 33.9 °F /  1.1 °C 30.23in /  1023.6hPa NW 1.0mph /  1.6km/h 4.0mph /  6.4km/h 85% 0.00in /  0mm
07:29 38.0 °F /  3.3 °C 33.9 °F /  1.1 °C 30.24in /  1023.9hPa NW 2.0mph /  3.2km/h 2.0mph /  3.2km/h 85% 0.00in /  0mm
07:34 38.0 °F /  3.3 °C 33.9 °F /  1.1 °C 30.24in /  1023.9hPa Calm   4.0mph /  6.4km/h 85% 0.00in /  0mm
07:39 38.0 °F /  3.3 °C 33.6 °F /  0.9 °C 30.24in /  1023.9hPa NW 2.0mph /  3.2km/h 3.0mph /  4.8km/h 84% 0.00in /  0mm
07:44 38.0 °F /  3.3 °C 33.6 °F /  0.9 °C 30.24in /  1023.9hPa NW 1.0mph /  1.6km/h 4.0mph /  6.4km/h 84% 0.00in /  0mm
07:49 38.1 °F /  3.4 °C 33.7 °F /  0.9 °C 30.24in /  1023.9hPa Calm   2.0mph /  3.2km/h 84% 0.00in /  0mm
07:54 38.1 °F /  3.4 °C 33.7 °F /  0.9 °C 30.24in /  1023.9hPa Calm   2.0mph /  3.2km/h 84% 0.00in /  0mm
07:59 38.1 °F /  3.4 °C 33.7 °F /  0.9 °C 30.24in /  1023.9hPa Calm     84% 0.00in /  0mm
08:04 38.1 °F /  3.4 °C 33.7 °F /  0.9 °C 30.24in /  1023.9hPa Calm     84% 0.00in /  0mm
08:09 38.2 °F /  3.4 °C 33.8 °F /  1 °C 30.25in /  1024.3hPa Calm   2.0mph /  3.2km/h 84% 0.00in /  0mm
08:14 38.2 °F /  3.4 °C 33.5 °F /  0.8 °C 30.25in /  1024.3hPa NW 1.0mph /  1.6km/h 4.0mph /  6.4km/h 83% 0.00in /  0mm
08:19 38.2 °F /  3.4 °C 33.5 °F /  0.8 °C 30.25in /  1024.3hPa NW 2.0mph /  3.2km/h 3.0mph /  4.8km/h 83% 0.00in /  0mm
08:24 38.2 °F /  3.4 °C 33.5 °F /  0.8 °C 30.25in /  1024.3hPa NW 1.0mph /  1.6km/h 3.0mph /  4.8km/h 83% 0.00in /  0mm
08:29 38.5 °F /  3.6 °C 33.5 °F /  0.8 °C 30.25in /  1024.3hPa NW 1.0mph /  1.6km/h 3.0mph /  4.8km/h 82% 0.00in /  0mm
08:34 38.9 °F /  3.8 °C 33.3 °F /  0.7 °C 30.25in /  1024.3hPa Calm   1.0mph /  1.6km/h 80% 0.00in /  0mm
08:39 39.1 °F /  3.9 °C 33.1 °F /  0.6 °C 30.25in /  1024.3hPa NNW 2.0mph /  3.2km/h 6.0mph /  9.7km/h 79% 0.00in /  0mm
08:44 39.3 °F /  4.1 °C 33.0 °F /  0.6 °C 30.26in /  1024.6hPa NNW 1.0mph /  1.6km/h 6.0mph /  9.7km/h 78% 0.00in /  0mm
08:49 39.5 °F /  4.2 °C 32.9 °F /  0.5 °C 30.26in /  1024.6hPa NNW 3.0mph /  4.8km/h 5.0mph /  8km/h 77% 0.00in /  0mm
08:54 39.5 °F /  4.2 °C 32.6 °F /  0.3 °C 30.26in /  1024.6hPa NNW 1.0mph /  1.6km/h 5.0mph /  8km/h 76% 0.00in /  0mm
08:59 39.5 °F /  4.2 °C 32.6 °F /  0.3 °C 30.27in /  1024.9hPa NW 2.0mph /  3.2km/h 6.0mph /  9.7km/h 76% 0.00in /  0mm
09:04 39.6 °F /  4.2 °C 32.7 °F /  0.4 °C 30.27in /  1024.9hPa WNW 2.0mph /  3.2km/h 6.0mph /  9.7km/h 76% 0.00in /  0mm
09:09 39.9 °F /  4.4 °C 32.9 °F /  0.5 °C 30.26in /  1024.6hPa WNW 1.0mph /  1.6km/h 4.0mph /  6.4km/h 76% 0.00in /  0mm
09:14 39.9 °F /  4.4 °C 32.6 °F /  0.3 °C 30.26in /  1024.6hPa NW 2.0mph /  3.2km/h 6.0mph /  9.7km/h 75% 0.00in /  0mm
09:19 39.7 °F /  4.3 °C 32.1 °F /  0.1 °C 30.26in /  1024.6hPa NW 3.0mph /  4.8km/h 6.0mph /  9.7km/h 74% 0.00in /  0mm
09:24 39.6 °F /  4.2 °C 32.0 °F /  0 °C 30.26in /  1024.6hPa NNW 1.0mph /  1.6km/h 6.0mph /  9.7km/h 74% 0.00in /  0mm
09:29 39.6 °F /  4.2 °C 32.0 °F /  0 °C 30.26in /  1024.6hPa NNW 3.0mph /  4.8km/h 7.0mph /  11.3km/h 74% 0.00in /  0mm
09:34 39.7 °F /  4.3 °C 32.1 °F /  0.1 °C 30.25in /  1024.3hPa NW 4.0mph /  6.4km/h 4.0mph /  6.4km/h 74% 0.00in /  0mm
09:39 40.1 °F /  4.5 °C 32.5 °F /  0.3 °C 30.26in /  1024.6hPa NW 1.0mph /  1.6km/h 4.0mph /  6.4km/h 74% 0.00in /  0mm
09:44 40.2 °F /  4.6 °C 32.2 °F /  0.1 °C 30.26in /  1024.6hPa NNW 1.0mph /  1.6km/h 4.0mph /  6.4km/h 73% 0.00in /  0mm
09:49 40.3 °F /  4.6 °C 32.0 °F /  0 °C 30.26in /  1024.6hPa NNW 1.0mph /  1.6km/h 4.0mph /  6.4km/h 72% 0.00in /  0mm
09:54 40.6 °F /  4.8 °C 32.6 °F /  0.3 °C 30.26in /  1024.6hPa North 5.0mph /  8km/h 5.0mph /  8km/h 73% 0.00in /  0mm
09:59 40.4 °F /  4.7 °C 32.1 °F /  0.1 °C 30.26in /  1024.6hPa North 3.0mph /  4.8km/h 5.0mph /  8km/h 72% 0.00in /  0mm
10:04 40.6 °F /  4.8 °C 32.6 °F /  0.3 °C 30.26in /  1024.6hPa North 3.0mph /  4.8km/h 5.0mph /  8km/h 73% 0.00in /  0mm
10:09 40.7 °F /  4.8 °C 32.4 °F /  0.2 °C 30.26in /  1024.6hPa NNW 2.0mph /  3.2km/h 5.0mph /  8km/h 72% 0.00in /  0mm
10:14 40.6 °F /  4.8 °C 31.9 °F /  -0.1 °C 30.26in /  1024.6hPa NNW 2.0mph /  3.2km/h 6.0mph /  9.7km/h 71% 0.00in /  0mm
10:19 40.7 °F /  4.8 °C 32.4 °F /  0.2 °C 30.25in /  1024.3hPa North 1.0mph /  1.6km/h 4.0mph /  6.4km/h 72% 0.00in /  0mm
10:24 40.8 °F /  4.9 °C 32.1 °F /  0.1 °C 30.25in /  1024.3hPa North 2.0mph /  3.2km/h 5.0mph /  8km/h 71% 0.00in /  0mm
10:29 40.7 °F /  4.8 °C 32.0 °F /  0 °C 30.25in /  1024.3hPa NNW 4.0mph /  6.4km/h 5.0mph /  8km/h 71% 0.00in /  0mm
10:34 40.6 °F /  4.8 °C 31.9 °F /  -0.1 °C 30.25in /  1024.3hPa NNW 2.0mph /  3.2km/h 5.0mph /  8km/h 71% 0.00in /  0mm
10:39 40.8 °F /  4.9 °C 32.8 °F /  0.4 °C 30.25in /  1024.3hPa NNW 2.0mph /  3.2km/h 8.0mph /  12.9km/h 73% 0.00in /  0mm
10:44 40.9 °F /  4.9 °C 32.6 °F /  0.3 °C 30.25in /  1024.3hPa NNW 2.0mph /  3.2km/h 4.0mph /  6.4km/h 72% 0.00in /  0mm
10:49 41.2 °F /  5.1 °C 33.2 °F /  0.7 °C 30.25in /  1024.3hPa NNE 2.0mph /  3.2km/h 4.0mph /  6.4km/h 73% 0.00in /  0mm
10:54 41.1 °F /  5.1 °C 32.8 °F /  0.4 °C 30.25in /  1024.3hPa NNE 3.0mph /  4.8km/h 6.0mph /  9.7km/h 72% 0.00in /  0mm
10:59 41.0 °F /  5 °C 32.7 °F /  0.4 °C 30.25in /  1024.3hPa NNW 2.0mph /  3.2km/h 4.0mph /  6.4km/h 72% 0.00in /  0mm
11:04 41.0 °F /  5 °C 32.7 °F /  0.4 °C 30.25in /  1024.3hPa NNE 3.0mph /  4.8km/h 6.0mph /  9.7km/h 72% 0.00in /  0mm
11:09 41.0 °F /  5 °C 32.7 °F /  0.4 °C 30.25in /  1024.3hPa NE 3.0mph /  4.8km/h 6.0mph /  9.7km/h 72% 0.00in /  0mm
11:14 40.9 °F /  4.9 °C 32.9 °F /  0.5 °C 30.24in /  1023.9hPa NE 2.0mph /  3.2km/h 5.0mph /  8km/h 73% 0.00in /  0mm
11:19 41.0 °F /  5 °C 32.7 °F /  0.4 °C 30.24in /  1023.9hPa NE 2.0mph /  3.2km/h 5.0mph /  8km/h 72% 0.00in /  0mm
11:24 40.9 °F /  4.9 °C 32.9 °F /  0.5 °C 30.24in /  1023.9hPa NNE 8.0mph /  12.9km/h 12.0mph /  19.3km/h 73% 0.00in /  0mm
11:29 39.8 °F /  4.3 °C 32.5 °F /  0.3 °C 30.24in /  1023.9hPa NNE 7.0mph /  11.3km/h 10.0mph /  16.1km/h 75% 0.00in /  0mm
11:34 39.0 °F /  3.9 °C 32.1 °F /  0.1 °C 30.24in /  1023.9hPa NNE 5.0mph /  8km/h 10.0mph /  16.1km/h 76% 0.00in /  0mm
11:39 39.0 °F /  3.9 °C 32.4 °F /  0.2 °C 30.24in /  1023.9hPa NNE 4.0mph /  6.4km/h 8.0mph /  12.9km/h 77% 0.00in /  0mm
11:44 38.9 °F /  3.8 °C 32.3 °F /  0.2 °C 30.24in /  1023.9hPa NNE 4.0mph /  6.4km/h 7.0mph /  11.3km/h 77% 0.00in /  0mm
11:49 38.9 °F /  3.8 °C 32.3 °F /  0.2 °C 30.25in /  1024.3hPa North 4.0mph /  6.4km/h 6.0mph /  9.7km/h 77% 0.00in /  0mm
11:54 38.8 °F /  3.8 °C 32.5 °F /  0.3 °C 30.25in /  1024.3hPa NNW 2.0mph /  3.2km/h 6.0mph /  9.7km/h 78% 0.00in /  0mm
11:59 38.8 °F /  3.8 °C 32.2 °F /  0.1 °C 30.24in /  1023.9hPa NNW 2.0mph /  3.2km/h 6.0mph /  9.7km/h 77% 0.00in /  0mm
12:04 38.6 °F /  3.7 °C 32.0 °F /  0 °C 30.24in /  1023.9hPa North 3.0mph /  4.8km/h 7.0mph /  11.3km/h 77% 0.00in /  0mm
12:09 38.5 °F /  3.6 °C 31.9 °F /  -0.1 °C 30.23in /  1023.6hPa NE 2.0mph /  3.2km/h 9.0mph /  14.5km/h 77% 0.00in /  0mm
12:14 38.6 °F /  3.7 °C 32.3 °F /  0.2 °C 30.23in /  1023.6hPa NNE 4.0mph /  6.4km/h 5.0mph /  8km/h 78% 0.00in /  0mm
12:19 38.7 °F /  3.7 °C 32.4 °F /  0.2 °C 30.23in /  1023.6hPa NE 6.0mph /  9.7km/h 6.0mph /  9.7km/h 78% 0.00in /  0mm
12:24 38.6 °F /  3.7 °C 32.3 °F /  0.2 °C 30.23in /  1023.6hPa NNE 3.0mph /  4.8km/h 6.0mph /  9.7km/h 78% 0.00in /  0mm
12:29 38.5 °F /  3.6 °C 32.2 °F /  0.1 °C 30.23in /  1023.6hPa NNW 5.0mph /  8km/h 7.0mph /  11.3km/h 78% 0.00in /  0mm
12:34 38.5 °F /  3.6 °C 32.2 °F /  0.1 °C 30.23in /  1023.6hPa NNE 4.0mph /  6.4km/h 7.0mph /  11.3km/h 78% 0.00in /  0mm
12:39 38.4 °F /  3.6 °C 31.8 °F /  -0.1 °C 30.23in /  1023.6hPa NNE 4.0mph /  6.4km/h 7.0mph /  11.3km/h 77% 0.00in /  0mm
12:44 38.2 °F /  3.4 °C 31.6 °F /  -0.2 °C 30.23in /  1023.6hPa NNE 4.0mph /  6.4km/h 7.0mph /  11.3km/h 77% 0.00in /  0mm
12:49 38.1 °F /  3.4 °C 31.5 °F /  -0.3 °C 30.22in /  1023.2hPa NNE 3.0mph /  4.8km/h 6.0mph /  9.7km/h 77% 0.00in /  0mm
12:54 38.1 °F /  3.4 °C 31.5 °F /  -0.3 °C 30.22in /  1023.2hPa NNE 4.0mph /  6.4km/h 6.0mph /  9.7km/h 77% 0.00in /  0mm
12:59 37.9 °F /  3.3 °C 31.3 °F /  -0.4 °C 30.22in /  1023.2hPa NE 4.0mph /  6.4km/h 9.0mph /  14.5km/h 77% 0.00in /  0mm
13:04 37.7 °F /  3.2 °C 31.1 °F /  -0.5 °C 30.22in /  1023.2hPa NNE 4.0mph /  6.4km/h 8.0mph /  12.9km/h 77% 0.00in /  0mm
13:09 37.5 °F /  3.1 °C 31.3 °F /  -0.4 °C 30.22in /  1023.2hPa NNE 4.0mph /  6.4km/h 7.0mph /  11.3km/h 78% 0.00in /  0mm
13:14 37.6 °F /  3.1 °C 31.0 °F /  -0.6 °C 30.21in /  1022.9hPa NNE 4.0mph /  6.4km/h 6.0mph /  9.7km/h 77% 0.00in /  0mm
13:19 37.4 °F /  3 °C 30.5 °F /  -0.8 °C 30.21in /  1022.9hPa NNE 3.0mph /  4.8km/h 8.0mph /  12.9km/h 76% 0.00in /  0mm
13:24 37.3 °F /  2.9 °C 30.4 °F /  -0.9 °C 30.21in /  1022.9hPa NE 5.0mph /  8km/h 9.0mph /  14.5km/h 76% 0.00in /  0mm
13:29 37.7 °F /  3.2 °C 31.1 °F /  -0.5 °C 30.21in /  1022.9hPa NNE 4.0mph /  6.4km/h 9.0mph /  14.5km/h 77% 0.00in /  0mm
13:34 37.7 °F /  3.2 °C 30.8 °F /  -0.7 °C 30.21in /  1022.9hPa NNE 4.0mph /  6.4km/h 10.0mph /  16.1km/h 76% 0.00in /  0mm
13:39 37.6 °F /  3.1 °C 30.7 °F /  -0.7 °C 30.21in /  1022.9hPa NE 4.0mph /  6.4km/h 10.0mph /  16.1km/h 76% 0.00in /  0mm
13:44 37.3 °F /  2.9 °C 30.1 °F /  -1.1 °C 30.21in /  1022.9hPa NE 5.0mph /  8km/h 10.0mph /  16.1km/h 75% 0.00in /  0mm
13:49 37.4 °F /  3 °C 30.2 °F /  -1 °C 30.21in /  1022.9hPa North 2.0mph /  3.2km/h 8.0mph /  12.9km/h 75% 0.00in /  0mm
13:54 37.5 °F /  3.1 °C 30.6 °F /  -0.8 °C 30.22in /  1023.2hPa North 1.0mph /  1.6km/h 7.0mph /  11.3km/h 76% 0.00in /  0mm
13:59 37.7 °F /  3.2 °C 30.8 °F /  -0.7 °C 30.22in /  1023.2hPa NNE 4.0mph /  6.4km/h 7.0mph /  11.3km/h 76% 0.00in /  0mm
14:04 38.0 °F /  3.3 °C 31.1 °F /  -0.5 °C 30.21in /  1022.9hPa NNE 3.0mph /  4.8km/h 7.0mph /  11.3km/h 76% 0.00in /  0mm
14:09 38.0 °F /  3.3 °C 30.8 °F /  -0.7 °C 30.21in /  1022.9hPa NNE 3.0mph /  4.8km/h 7.0mph /  11.3km/h 75% 0.00in /  0mm
14:14 38.1 °F /  3.4 °C 30.9 °F /  -0.6 °C 30.21in /  1022.9hPa NNE 3.0mph /  4.8km/h 6.0mph /  9.7km/h 75% 0.00in /  0mm
14:19 38.0 °F /  3.3 °C 30.8 °F /  -0.7 °C 30.21in /  1022.9hPa NE 5.0mph /  8km/h 8.0mph /  12.9km/h 75% 0.00in /  0mm
14:24 37.7 °F /  3.2 °C 30.5 °F /  -0.8 °C 30.21in /  1022.9hPa NE 5.0mph /  8km/h 8.0mph /  12.9km/h 75% 0.00in /  0mm
14:29 37.7 °F /  3.2 °C 30.5 °F /  -0.8 °C 30.20in /  1022.6hPa NE 4.0mph /  6.4km/h 9.0mph /  14.5km/h 75% 0.00in /  0mm
14:34 37.6 °F /  3.1 °C 30.4 °F /  -0.9 °C 30.21in /  1022.9hPa NNE 4.0mph /  6.4km/h 9.0mph /  14.5km/h 75% 0.00in /  0mm
14:39 37.6 °F /  3.1 °C 30.1 °F /  -1.1 °C 30.21in /  1022.9hPa NNE 3.0mph /  4.8km/h 8.0mph /  12.9km/h 74% 0.00in /  0mm
14:44 37.7 °F /  3.2 °C 30.5 °F /  -0.8 °C 30.21in /  1022.9hPa ENE 7.0mph /  11.3km/h 7.0mph /  11.3km/h 75% 0.00in /  0mm
14:49 38.0 °F /  3.3 °C 30.4 °F /  -0.9 °C 30.21in /  1022.9hPa NE 2.0mph /  3.2km/h 7.0mph /  11.3km/h 74% 0.00in /  0mm
14:54 38.0 °F /  3.3 °C 30.8 °F /  -0.7 °C 30.20in /  1022.6hPa NE 3.0mph /  4.8km/h 9.0mph /  14.5km/h 75% 0.00in /  0mm
14:59 38.0 °F /  3.3 °C 30.4 °F /  -0.9 °C 30.20in /  1022.6hPa NE 4.0mph /  6.4km/h 10.0mph /  16.1km/h 74% 0.00in /  0mm
15:04 38.0 °F /  3.3 °C 30.8 °F /  -0.7 °C 30.20in /  1022.6hPa NE 4.0mph /  6.4km/h 10.0mph /  16.1km/h 75% 0.00in /  0mm
15:09 38.0 °F /  3.3 °C 30.4 °F /  -0.9 °C 30.20in /  1022.6hPa NE 4.0mph /  6.4km/h 9.0mph /  14.5km/h 74% 0.00in /  0mm
15:14 38.1 °F /  3.4 °C 30.5 °F /  -0.8 °C 30.19in /  1022.2hPa NE 5.0mph /  8km/h 9.0mph /  14.5km/h 74% 0.00in /  0mm
15:19 38.1 °F /  3.4 °C 30.5 °F /  -0.8 °C 30.19in /  1022.2hPa NE 5.0mph /  8km/h 11.0mph /  17.7km/h 74% 0.00in /  0mm
15:24 38.2 °F /  3.4 °C 30.6 °F /  -0.8 °C 30.20in /  1022.6hPa NE 5.0mph /  8km/h 11.0mph /  17.7km/h 74% 0.00in /  0mm
15:29 38.1 °F /  3.4 °C 30.2 °F /  -1 °C 30.19in /  1022.2hPa NNE 5.0mph /  8km/h 10.0mph /  16.1km/h 73% 0.00in /  0mm
15:39 38.0 °F /  3.3 °C 30.1 °F /  -1.1 °C 30.20in /  1022.6hPa NE 7.0mph /  11.3km/h 8.0mph /  12.9km/h 73% 0.00in /  0mm
15:44 38.1 °F /  3.4 °C 30.5 °F /  -0.8 °C 30.19in /  1022.2hPa ENE 2.0mph /  3.2km/h 9.0mph /  14.5km/h 74% 0.00in /  0mm
15:49 38.2 °F /  3.4 °C 30.6 °F /  -0.8 °C 30.19in /  1022.2hPa ENE 5.0mph /  8km/h 10.0mph /  16.1km/h 74% 0.00in /  0mm
15:54 38.1 °F /  3.4 °C 30.2 °F /  -1 °C 30.19in /  1022.2hPa NE 6.0mph /  9.7km/h 12.0mph /  19.3km/h 73% 0.00in /  0mm
15:59 38.0 °F /  3.3 °C 30.1 °F /  -1.1 °C 30.18in /  1021.9hPa NE 6.0mph /  9.7km/h 12.0mph /  19.3km/h 73% 0.00in /  0mm
16:04 38.2 °F /  3.4 °C 30.6 °F /  -0.8 °C 30.19in /  1022.2hPa ENE 7.0mph /  11.3km/h 10.0mph /  16.1km/h 74% 0.00in /  0mm
16:09 38.2 °F /  3.4 °C 30.3 °F /  -0.9 °C 30.18in /  1021.9hPa NE 5.0mph /  8km/h 10.0mph /  16.1km/h 73% 0.00in /  0mm
16:19 38.6 °F /  3.7 °C 30.7 °F /  -0.7 °C 30.18in /  1021.9hPa NE 5.0mph /  8km/h 10.0mph /  16.1km/h 73% 0.00in /  0mm
16:24 38.7 °F /  3.7 °C 30.8 °F /  -0.7 °C 30.18in /  1021.9hPa NE 2.0mph /  3.2km/h 9.0mph /  14.5km/h 73% 0.00in /  0mm
16:29 39.2 °F /  4 °C 31.3 °F /  -0.4 °C 30.17in /  1021.6hPa ENE 4.0mph /  6.4km/h 9.0mph /  14.5km/h 73% 0.00in /  0mm
16:34 39.1 °F /  3.9 °C 30.8 °F /  -0.7 °C 30.17in /  1021.6hPa NE 10.0mph /  16.1km/h 11.0mph /  17.7km/h 72% 0.00in /  0mm
16:39 38.7 °F /  3.7 °C 30.8 °F /  -0.7 °C 30.16in /  1021.2hPa ENE 5.0mph /  8km/h 11.0mph /  17.7km/h 73% 0.00in /  0mm
16:44 38.4 °F /  3.6 °C 30.5 °F /  -0.8 °C 30.16in /  1021.2hPa NE 7.0mph /  11.3km/h 10.0mph /  16.1km/h 73% 0.00in /  0mm
16:49 38.2 °F /  3.4 °C 30.6 °F /  -0.8 °C 30.16in /  1021.2hPa SE 3.0mph /  4.8km/h 12.0mph /  19.3km/h 74% 0.00in /  0mm
16:54 38.1 °F /  3.4 °C 30.5 °F /  -0.8 °C 30.17in /  1021.6hPa NE 7.0mph /  11.3km/h 11.0mph /  17.7km/h 74% 0.00in /  0mm
16:59 38.1 °F /  3.4 °C 30.5 °F /  -0.8 °C 30.17in /  1021.6hPa East 5.0mph /  8km/h 11.0mph /  17.7km/h 74% 0.00in /  0mm
17:04 38.1 °F /  3.4 °C 30.5 °F /  -0.8 °C 30.16in /  1021.2hPa ENE 5.0mph /  8km/h 11.0mph /  17.7km/h 74% 0.00in /  0mm
17:09 38.0 °F /  3.3 °C 30.4 °F /  -0.9 °C 30.17in /  1021.6hPa NE 5.0mph /  8km/h 11.0mph /  17.7km/h 74% 0.00in /  0mm
17:14 37.9 °F /  3.3 °C 30.4 °F /  -0.9 °C 30.17in /  1021.6hPa NE 6.0mph /  9.7km/h 11.0mph /  17.7km/h 74% 0.00in /  0mm
17:19 37.8 °F /  3.2 °C 30.3 °F /  -0.9 °C 30.17in /  1021.6hPa ENE 5.0mph /  8km/h 12.0mph /  19.3km/h 74% 0.00in /  0mm
17:24 37.7 °F /  3.2 °C 30.2 °F /  -1 °C 30.17in /  1021.6hPa ENE 5.0mph /  8km/h 12.0mph /  19.3km/h 74% 0.00in /  0mm
17:29 37.7 °F /  3.2 °C 30.2 °F /  -1 °C 30.17in /  1021.6hPa ENE 8.0mph /  12.9km/h 13.0mph /  20.9km/h 74% 0.00in /  0mm
17:34 37.6 °F /  3.1 °C 30.4 °F /  -0.9 °C 30.17in /  1021.6hPa ENE 6.0mph /  9.7km/h 13.0mph /  20.9km/h 75% 0.00in /  0mm
17:39 37.7 °F /  3.2 °C 30.5 °F /  -0.8 °C 30.17in /  1021.6hPa ENE 5.0mph /  8km/h 9.0mph /  14.5km/h 75% 0.00in /  0mm
17:44 37.7 °F /  3.2 °C 30.5 °F /  -0.8 °C 30.17in /  1021.6hPa ENE 4.0mph /  6.4km/h 11.0mph /  17.7km/h 75% 0.00in /  0mm
17:49 37.7 °F /  3.2 °C 30.5 °F /  -0.8 °C 30.17in /  1021.6hPa ENE 4.0mph /  6.4km/h 11.0mph /  17.7km/h 75% 0.00in /  0mm
17:54 37.7 °F /  3.2 °C 30.5 °F /  -0.8 °C 30.17in /  1021.6hPa ENE 3.0mph /  4.8km/h 7.0mph /  11.3km/h 75% 0.00in /  0mm
17:59 37.6 °F /  3.1 °C 30.4 °F /  -0.9 °C 30.17in /  1021.6hPa East 3.0mph /  4.8km/h 7.0mph /  11.3km/h 75% 0.00in /  0mm
18:04 37.6 °F /  3.1 °C 30.4 °F /  -0.9 °C 30.18in /  1021.9hPa ENE 3.0mph /  4.8km/h 9.0mph /  14.5km/h 75% 0.00in /  0mm
18:09 37.6 °F /  3.1 °C 30.4 °F /  -0.9 °C 30.18in /  1021.9hPa ENE 3.0mph /  4.8km/h 7.0mph /  11.3km/h 75% 0.00in /  0mm
18:14 37.6 °F /  3.1 °C 30.4 °F /  -0.9 °C 30.18in /  1021.9hPa ENE 2.0mph /  3.2km/h 7.0mph /  11.3km/h 75% 0.00in /  0mm
18:19 37.6 °F /  3.1 °C 30.4 °F /  -0.9 °C 30.18in /  1021.9hPa East 3.0mph /  4.8km/h 9.0mph /  14.5km/h 75% 0.00in /  0mm
18:24 37.5 °F /  3.1 °C 30.3 °F /  -0.9 °C 30.18in /  1021.9hPa ENE 3.0mph /  4.8km/h 10.0mph /  16.1km/h 75% 0.00in /  0mm
18:29 37.5 °F /  3.1 °C 30.6 °F /  -0.8 °C 30.18in /  1021.9hPa East 3.0mph /  4.8km/h 7.0mph /  11.3km/h 76% 0.00in /  0mm
18:34 37.5 °F /  3.1 °C 30.6 °F /  -0.8 °C 30.18in /  1021.9hPa Calm   10.0mph /  16.1km/h 76% 0.00in /  0mm
18:39 37.5 °F /  3.1 °C 30.6 °F /  -0.8 °C 30.19in /  1022.2hPa ENE 3.0mph /  4.8km/h 10.0mph /  16.1km/h 76% 0.00in /  0mm
18:44 37.5 °F /  3.1 °C 30.6 °F /  -0.8 °C 30.19in /  1022.2hPa ENE 3.0mph /  4.8km/h 9.0mph /  14.5km/h 76% 0.00in /  0mm
18:49 37.5 °F /  3.1 °C 30.9 °F /  -0.6 °C 30.19in /  1022.2hPa East 3.0mph /  4.8km/h 9.0mph /  14.5km/h 77% 0.00in /  0mm
18:54 37.5 °F /  3.1 °C 30.9 °F /  -0.6 °C 30.19in /  1022.2hPa East 2.0mph /  3.2km/h 7.0mph /  11.3km/h 77% 0.00in /  0mm
18:59 37.5 °F /  3.1 °C 30.9 °F /  -0.6 °C 30.19in /  1022.2hPa East 3.0mph /  4.8km/h 7.0mph /  11.3km/h 77% 0.00in /  0mm
19:04 37.4 °F /  3 °C 30.8 °F /  -0.7 °C 30.19in /  1022.2hPa ENE 2.0mph /  3.2km/h 7.0mph /  11.3km/h 77% 0.00in /  0mm
19:09 37.4 °F /  3 °C 30.8 °F /  -0.7 °C 30.19in /  1022.2hPa ENE 2.0mph /  3.2km/h 7.0mph /  11.3km/h 77% 0.00in /  0mm
19:14 37.3 °F /  2.9 °C 31.1 °F /  -0.5 °C 30.19in /  1022.2hPa ENE 2.0mph /  3.2km/h 7.0mph /  11.3km/h 78% 0.00in /  0mm
19:19 37.3 °F /  2.9 °C 31.1 °F /  -0.5 °C 30.18in /  1021.9hPa ENE 4.0mph /  6.4km/h 4.0mph /  6.4km/h 78% 0.00in /  0mm
19:24 37.3 °F /  2.9 °C 31.1 °F /  -0.5 °C 30.18in /  1021.9hPa NE 4.0mph /  6.4km/h 9.0mph /  14.5km/h 78% 0.00in /  0mm
19:29 37.3 °F /  2.9 °C 31.1 °F /  -0.5 °C 30.18in /  1021.9hPa NE 5.0mph /  8km/h 10.0mph /  16.1km/h 78% 0.00in /  0mm
19:34 37.3 °F /  2.9 °C 31.1 °F /  -0.5 °C 30.18in /  1021.9hPa ENE 4.0mph /  6.4km/h 9.0mph /  14.5km/h 78% 0.00in /  0mm
19:39 37.2 °F /  2.9 °C 31.0 °F /  -0.6 °C 30.18in /  1021.9hPa East 5.0mph /  8km/h 8.0mph /  12.9km/h 78% 0.00in /  0mm
19:44 37.3 °F /  2.9 °C 31.1 °F /  -0.5 °C 30.17in /  1021.6hPa East 3.0mph /  4.8km/h 8.0mph /  12.9km/h 78% 0.00in /  0mm
19:49 37.2 °F /  2.9 °C 31.3 °F /  -0.4 °C 30.17in /  1021.6hPa ENE 3.0mph /  4.8km/h 9.0mph /  14.5km/h 79% 0.00in /  0mm
19:54 37.2 °F /  2.9 °C 31.3 °F /  -0.4 °C 30.17in /  1021.6hPa ENE 3.0mph /  4.8km/h 9.0mph /  14.5km/h 79% 0.00in /  0mm
19:59 37.2 °F /  2.9 °C 31.3 °F /  -0.4 °C 30.17in /  1021.6hPa ENE 4.0mph /  6.4km/h 7.0mph /  11.3km/h 79% 0.00in /  0mm
20:04 37.2 °F /  2.9 °C 31.3 °F /  -0.4 °C 30.16in /  1021.2hPa ENE 2.0mph /  3.2km/h 5.0mph /  8km/h 79% 0.00in /  0mm
20:09 37.1 °F /  2.8 °C 31.2 °F /  -0.4 °C 30.16in /  1021.2hPa East 5.0mph /  8km/h 9.0mph /  14.5km/h 79% 0.00in /  0mm
20:14 37.1 °F /  2.8 °C 31.2 °F /  -0.4 °C 30.16in /  1021.2hPa ENE 4.0mph /  6.4km/h 9.0mph /  14.5km/h 79% 0.00in /  0mm
20:19 37.0 °F /  2.8 °C 31.1 °F /  -0.5 °C 30.15in /  1020.9hPa ENE 4.0mph /  6.4km/h 10.0mph /  16.1km/h 79% 0.00in /  0mm
20:24 37.0 °F /  2.8 °C 31.1 °F /  -0.5 °C 30.15in /  1020.9hPa ENE 4.0mph /  6.4km/h 10.0mph /  16.1km/h 79% 0.00in /  0mm
20:29 37.0 °F /  2.8 °C 31.1 °F /  -0.5 °C 30.15in /  1020.9hPa ENE 4.0mph /  6.4km/h 10.0mph /  16.1km/h 79% 0.00in /  0mm
20:34 36.9 °F /  2.7 °C 30.7 °F /  -0.7 °C 30.16in /  1021.2hPa ENE 4.0mph /  6.4km/h 8.0mph /  12.9km/h 78% 0.00in /  0mm
20:39 36.9 °F /  2.7 °C 30.7 °F /  -0.7 °C 30.15in /  1020.9hPa East 2.0mph /  3.2km/h 7.0mph /  11.3km/h 78% 0.00in /  0mm
20:44 36.9 °F /  2.7 °C 30.7 °F /  -0.7 °C 30.14in /  1020.5hPa ENE 4.0mph /  6.4km/h 9.0mph /  14.5km/h 78% 0.00in /  0mm
20:49 37.0 °F /  2.8 °C 30.8 °F /  -0.7 °C 30.14in /  1020.5hPa ENE 4.0mph /  6.4km/h 10.0mph /  16.1km/h 78% 0.00in /  0mm
20:54 37.0 °F /  2.8 °C 30.8 °F /  -0.7 °C 30.14in /  1020.5hPa ENE 3.0mph /  4.8km/h 9.0mph /  14.5km/h 78% 0.00in /  0mm
20:59 37.0 °F /  2.8 °C 30.8 °F /  -0.7 °C 30.14in /  1020.5hPa NE 4.0mph /  6.4km/h 9.0mph /  14.5km/h 78% 0.00in /  0mm
21:04 37.0 °F /  2.8 °C 30.8 °F /  -0.7 °C 30.13in /  1020.2hPa East 3.0mph /  4.8km/h 11.0mph /  17.7km/h 78% 0.00in /  0mm
21:09 37.0 °F /  2.8 °C 30.8 °F /  -0.7 °C 30.13in /  1020.2hPa ENE 5.0mph /  8km/h 11.0mph /  17.7km/h 78% 0.00in /  0mm
Buffalo, New York, USA
Compliments of Weather Underground - 2.25 mb